Search for airport 
image banner adimage banner adimage banner ad
image banner ad

CA87 - Sce Songs Mesa

Located in San Clemente, United States

ICAO - CA87, IATA -

Data provided by Airmate  

General information

Coordinates: N33°22'46" W117°33'35"
Elevation is 100 feet MSL.
Magnetic variation is 14° East
View others Airports in California

Operational data

Special qualification required
Current time UTC:
Current local time:
METAR: KNFG 211255Z AUTO 08003KT 8SM OVC006 18/14 A2995 RMK AO2 SLP142 T01780139
TAF: TAF KNFG 2109/2209 VRB05KT 9999 OVC008 520009 520903 QNH2991INS TEMPO 2108/2114 4800 BR VV003 FM211630 VRB05KT 9999 SKC 520009 520903 QNH2998INS FM211930 21008KT 9999 SKC 520009 520903 QNH2991INS BECMG 2202/2204 30005KT 9999 OVC012 QNH2991INS TEMPO 2204/2209 3200 BR VV002 T14/2114Z T27/2121Z T15/2114Z T23/2121Z
View NOTAMs / SUP AIP / TFR affecting this airport [VIEW]
Communications frequencies: [VIEW]

Runways:

Airport contact information

Address: San Clemente United States

Satellite view of CA87